sensor_id;sensor_type;location;lat;lon;timestamp;pressure;altitude;pressure_sealevel;temperature
60615;BMP280;46444;45.590;5.284;2022-09-13T00:00:30;98408.50;;;25.28
60615;BMP280;46444;45.590;5.284;2022-09-13T00:02:56;98407.13;;;25.34
60615;BMP280;46444;45.590;5.284;2022-09-13T00:05:21;98402.59;;;25.38
60615;BMP280;46444;45.590;5.284;2022-09-13T00:07:47;98399.38;;;25.36
60615;BMP280;46444;45.590;5.284;2022-09-13T00:10:13;98406.31;;;25.34
60615;BMP280;46444;45.590;5.284;2022-09-13T00:12:38;98402.78;;;25.21
60615;BMP280;46444;45.590;5.284;2022-09-13T00:15:04;98389.09;;;25.21
60615;BMP280;46444;45.590;5.284;2022-09-13T00:17:29;98381.34;;;25.23
60615;BMP280;46444;45.590;5.284;2022-09-13T00:19:55;98386.38;;;25.21
60615;BMP280;46444;45.590;5.284;2022-09-13T00:22:20;98386.63;;;25.28
60615;BMP280;46444;45.590;5.284;2022-09-13T00:24:45;98385.03;;;25.27
60615;BMP280;46444;45.590;5.284;2022-09-13T00:27:11;98390.63;;;25.31
60615;BMP280;46444;45.590;5.284;2022-09-13T00:29:37;98380.44;;;25.31
60615;BMP280;46444;45.590;5.284;2022-09-13T00:32:02;98392.53;;;25.30
60615;BMP280;46444;45.590;5.284;2022-09-13T00:34:28;98391.75;;;25.30
60615;BMP280;46444;45.590;5.284;2022-09-13T00:36:53;98389.47;;;25.32
60615;BMP280;46444;45.590;5.284;2022-09-13T00:39:18;98380.44;;;25.31
60615;BMP280;46444;45.590;5.284;2022-09-13T00:41:44;98377.03;;;25.34
60615;BMP280;46444;45.590;5.284;2022-09-13T00:47:14;98376.94;;;25.31
60615;BMP280;46444;45.590;5.284;2022-09-13T00:49:41;98378.41;;;25.28
60615;BMP280;46444;45.590;5.284;2022-09-13T00:52:15;98374.19;;;25.31
60615;BMP280;46444;45.590;5.284;2022-09-13T00:54:46;98384.34;;;25.30
60615;BMP280;46444;45.590;5.284;2022-09-13T00:57:16;98378.84;;;25.30
60615;BMP280;46444;45.590;5.284;2022-09-13T00:59:45;98383.44;;;25.26
60615;BMP280;46444;45.590;5.284;2022-09-13T01:02:12;98375.75;;;25.20
60615;BMP280;46444;45.590;5.284;2022-09-13T01:04:38;98370.63;;;25.18
60615;BMP280;46444;45.590;5.284;2022-09-13T01:07:06;98367.22;;;25.09
60615;BMP280;46444;45.590;5.284;2022-09-13T01:09:34;98355.59;;;25.12
60615;BMP280;46444;45.590;5.284;2022-09-13T01:12:16;98355.69;;;25.16
60615;BMP280;46444;45.590;5.284;2022-09-13T01:14:45;98351.72;;;25.13
60615;BMP280;46444;45.590;5.284;2022-09-13T01:17:10;98352.41;;;25.10
60615;BMP280;46444;45.590;5.284;2022-09-13T01:19:36;98344.53;;;25.09
60615;BMP280;46444;45.590;5.284;2022-09-13T01:25:11;98348.75;;;25.06
60615;BMP280;46444;45.590;5.284;2022-09-13T01:30:48;98350.44;;;24.99
60615;BMP280;46444;45.590;5.284;2022-09-13T01:34:14;98346.47;;;24.96
60615;BMP280;46444;45.590;5.284;2022-09-13T01:39:13;98344.75;;;24.92
60615;BMP280;46444;45.590;5.284;2022-09-13T01:44:50;98333.25;;;24.86
60615;BMP280;46444;45.590;5.284;2022-09-13T01:50:43;98328.66;;;24.78
60615;BMP280;46444;45.590;5.284;2022-09-13T01:55:47;98327.56;;;24.79
60615;BMP280;46444;45.590;5.284;2022-09-13T01:58:28;98334.94;;;24.79
60615;BMP280;46444;45.590;5.284;2022-09-13T02:01:32;98334.91;;;24.67
60615;BMP280;46444;45.590;5.284;2022-09-13T02:04:07;98344.81;;;24.71
60615;BMP280;46444;45.590;5.284;2022-09-13T02:06:36;98353.94;;;24.63
60615;BMP280;46444;45.590;5.284;2022-09-13T02:09:11;98346.88;;;24.62
60615;BMP280;46444;45.590;5.284;2022-09-13T02:11:39;98346.19;;;24.65
60615;BMP280;46444;45.590;5.284;2022-09-13T02:14:13;98341.66;;;24.69
60615;BMP280;46444;45.590;5.284;2022-09-13T02:16:48;98350.50;;;24.66
60615;BMP280;46444;45.590;5.284;2022-09-13T02:19:19;98346.88;;;24.62
60615;BMP280;46444;45.590;5.284;2022-09-13T02:21:50;98341.41;;;24.62
60615;BMP280;46444;45.590;5.284;2022-09-13T02:24:22;98350.50;;;24.66
60615;BMP280;46444;45.590;5.284;2022-09-13T02:26:51;98353.59;;;24.65
60615;BMP280;46444;45.590;5.284;2022-09-13T02:29:18;98342.06;;;24.59
60615;BMP280;46444;45.590;5.284;2022-09-13T02:31:53;98344.66;;;24.56
60615;BMP280;46444;45.590;5.284;2022-09-13T02:34:29;98344.34;;;24.57
60615;BMP280;46444;45.590;5.284;2022-09-13T02:36:56;98352.22;;;24.59
60615;BMP280;46444;45.590;5.284;2022-09-13T02:39:28;98344.53;;;24.52
60615;BMP280;46444;45.590;5.284;2022-09-13T02:42:09;98348.41;;;24.51
60615;BMP280;46444;45.590;5.284;2022-09-13T02:44:46;98340.53;;;24.50
60615;BMP280;46444;45.590;5.284;2022-09-13T02:58:29;98309.72;;;24.49
60615;BMP280;46444;45.590;5.284;2022-09-13T03:00:56;98304.91;;;24.46
60615;BMP280;46444;45.590;5.284;2022-09-13T03:03:22;98305.59;;;24.43
60615;BMP280;46444;45.590;5.284;2022-09-13T03:05:48;98301.59;;;24.41
60615;BMP280;46444;45.590;5.284;2022-09-13T03:08:14;98301.94;;;24.39
60615;BMP280;46444;45.590;5.284;2022-09-13T03:11:09;98311.72;;;24.40
60615;BMP280;46444;45.590;5.284;2022-09-13T03:14:04;98315.22;;;24.29
60615;BMP280;46444;45.590;5.284;2022-09-13T03:30:22;98333.50;;;24.16
60615;BMP280;46444;45.590;5.284;2022-09-13T03:32:59;98334.16;;;24.13
60615;BMP280;46444;45.590;5.284;2022-09-13T03:40:40;98343.69;;;24.07
60615;BMP280;46444;45.590;5.284;2022-09-13T03:43:21;98335.50;;;24.07
60615;BMP280;46444;45.590;5.284;2022-09-13T03:45:52;98322.06;;;24.02
60615;BMP280;46444;45.590;5.284;2022-09-13T03:48:21;98311.81;;;23.99
60615;BMP280;46444;45.590;5.284;2022-09-13T03:50:47;98307.47;;;23.98
60615;BMP280;46444;45.590;5.284;2022-09-13T03:53:18;98306.41;;;23.91
60615;BMP280;46444;45.590;5.284;2022-09-13T03:55:44;98312.69;;;23.91
60615;BMP280;46444;45.590;5.284;2022-09-13T03:58:14;98313.53;;;23.83
60615;BMP280;46444;45.590;5.284;2022-09-13T04:00:42;98295.28;;;23.75
60615;BMP280;46444;45.590;5.284;2022-09-13T04:03:08;98293.16;;;23.81
60615;BMP280;46444;45.590;5.284;2022-09-13T04:05:34;98270.66;;;23.84
60615;BMP280;46444;45.590;5.284;2022-09-13T04:08:01;98263.28;;;23.84
60615;BMP280;46444;45.590;5.284;2022-09-13T04:10:27;98260.19;;;23.86
60615;BMP280;46444;45.590;5.284;2022-09-13T04:12:56;98266.94;;;23.88
60615;BMP280;46444;45.590;5.284;2022-09-13T04:15:21;98275.78;;;23.85
60615;BMP280;46444;45.590;5.284;2022-09-13T04:17:47;98304.94;;;23.73
60615;BMP280;46444;45.590;5.284;2022-09-13T04:20:12;98312.34;;;23.72
60615;BMP280;46444;45.590;5.284;2022-09-13T04:22:38;98314.72;;;23.74
60615;BMP280;46444;45.590;5.284;2022-09-13T04:25:04;98298.50;;;23.77
60615;BMP280;46444;45.590;5.284;2022-09-13T04:27:30;98315.53;;;23.74
60615;BMP280;46444;45.590;5.284;2022-09-13T04:29:55;98317.59;;;23.77
60615;BMP280;46444;45.590;5.284;2022-09-13T04:32:21;98301.69;;;23.79
60615;BMP280;46444;45.590;5.284;2022-09-13T04:34:46;98301.81;;;23.83
60615;BMP280;46444;45.590;5.284;2022-09-13T04:37:12;98306.47;;;23.82
60615;BMP280;46444;45.590;5.284;2022-09-13T04:39:37;98304.59;;;23.74
60615;BMP280;46444;45.590;5.284;2022-09-13T04:42:03;98306.88;;;23.72
60615;BMP280;46444;45.590;5.284;2022-09-13T04:44:29;98285.50;;;23.74
60615;BMP280;46444;45.590;5.284;2022-09-13T04:46:55;98293.69;;;23.74
60615;BMP280;46444;45.590;5.284;2022-09-13T04:49:21;98300.34;;;23.65
60615;BMP280;46444;45.590;5.284;2022-09-13T04:51:46;98308.34;;;23.70
60615;BMP280;46444;45.590;5.284;2022-09-13T04:54:12;98297.44;;;23.70
60615;BMP280;46444;45.590;5.284;2022-09-13T04:56:38;98297.31;;;23.66
60615;BMP280;46444;45.590;5.284;2022-09-13T04:59:04;98300.88;;;23.58
60615;BMP280;46444;45.590;5.284;2022-09-13T05:01:29;98303.28;;;23.60
60615;BMP280;46444;45.590;5.284;2022-09-13T05:03:55;98294.16;;;23.56
60615;BMP280;46444;45.590;5.284;2022-09-13T05:06:21;98302.75;;;23.66
60615;BMP280;46444;45.590;5.284;2022-09-13T05:08:52;98304.34;;;23.67
60615;BMP280;46444;45.590;5.284;2022-09-13T05:11:19;98285.91;;;23.64
60615;BMP280;46444;45.590;5.284;2022-09-13T05:13:48;98297.94;;;23.63
60615;BMP280;46444;45.590;5.284;2022-09-13T05:16:17;98298.91;;;23.67
60615;BMP280;46444;45.590;5.284;2022-09-13T05:18:42;98284.78;;;23.65
60615;BMP280;46444;45.590;5.284;2022-09-13T05:21:08;98295.03;;;23.68
60615;BMP280;46444;45.590;5.284;2022-09-13T05:23:33;98281.84;;;23.70
60615;BMP280;46444;45.590;5.284;2022-09-13T05:26:03;98281.72;;;23.67
60615;BMP280;46444;45.590;5.284;2022-09-13T05:28:30;98289.81;;;23.75
60615;BMP280;46444;45.590;5.284;2022-09-13T05:30:59;98295.03;;;23.68
60615;BMP280;46444;45.590;5.284;2022-09-13T05:33:26;98292.09;;;23.73
60615;BMP280;46444;45.590;5.284;2022-09-13T05:35:52;98289.81;;;23.75
60615;BMP280;46444;45.590;5.284;2022-09-13T05:38:17;98307.53;;;23.69
60615;BMP280;46444;45.590;5.284;2022-09-13T05:40:43;98290.97;;;23.74
60615;BMP280;46444;45.590;5.284;2022-09-13T05:43:09;98284.63;;;23.82
60615;BMP280;46444;45.590;5.284;2022-09-13T05:45:34;98284.63;;;23.82
60615;BMP280;46444;45.590;5.284;2022-09-13T05:48:00;98275.53;;;23.78
60615;BMP280;46444;45.590;5.284;2022-09-13T05:50:25;98289.19;;;23.78
60615;BMP280;46444;45.590;5.284;2022-09-13T05:52:54;98297.94;;;23.84
60615;BMP280;46444;45.590;5.284;2022-09-13T05:55:20;98289.81;;;23.75
60615;BMP280;46444;45.590;5.284;2022-09-13T05:57:46;98298.75;;;23.84
60615;BMP280;46444;45.590;5.284;2022-09-13T06:00:12;98317.38;;;23.82
60615;BMP280;46444;45.590;5.284;2022-09-13T06:02:38;98309.00;;;23.87
60615;BMP280;46444;45.590;5.284;2022-09-13T06:05:03;98310.81;;;23.83
60615;BMP280;46444;45.590;5.284;2022-09-13T06:07:29;98317.25;;;23.58
60615;BMP280;46444;45.590;5.284;2022-09-13T06:09:54;98307.22;;;23.71
60615;BMP280;46444;45.590;5.284;2022-09-13T06:12:19;98317.13;;;23.75
60615;BMP280;46444;45.590;5.284;2022-09-13T06:14:45;98320.03;;;23.70
60615;BMP280;46444;45.590;5.284;2022-09-13T06:17:10;98314.88;;;23.77
60615;BMP280;46444;45.590;5.284;2022-09-13T06:19:35;98305.94;;;23.68
60615;BMP280;46444;45.590;5.284;2022-09-13T06:22:01;98299.72;;;23.80
60615;BMP280;46444;45.590;5.284;2022-09-13T06:24:26;98292.03;;;23.82
60615;BMP280;46444;45.590;5.284;2022-09-13T06:26:51;98291.34;;;23.85
60615;BMP280;46444;45.590;5.284;2022-09-13T06:29:18;98303.41;;;23.84
60615;BMP280;46444;45.590;5.284;2022-09-13T06:31:43;98296.47;;;23.86
60615;BMP280;46444;45.590;5.284;2022-09-13T06:34:10;98301.81;;;23.83
60615;BMP280;46444;45.590;5.284;2022-09-13T06:36:38;98298.34;;;23.74
60615;BMP280;46444;45.590;5.284;2022-09-13T06:39:03;98300.03;;;23.66
60615;BMP280;46444;45.590;5.284;2022-09-13T06:41:31;98304.81;;;23.69
60615;BMP280;46444;45.590;5.284;2022-09-13T06:43:58;98292.75;;;23.70
60615;BMP280;46444;45.590;5.284;2022-09-13T06:46:27;98290.50;;;23.72
60615;BMP280;46444;45.590;5.284;2022-09-13T06:48:54;98290.78;;;23.59
60615;BMP280;46444;45.590;5.284;2022-09-13T06:51:24;98294.91;;;23.65
60615;BMP280;46444;45.590;5.284;2022-09-13T06:53:50;98297.94;;;23.63
60615;BMP280;46444;45.590;5.284;2022-09-13T06:58:46;98297.94;;;23.63
60615;BMP280;46444;45.590;5.284;2022-09-13T07:01:15;98294.44;;;23.63
60615;BMP280;46444;45.590;5.284;2022-09-13T07:03:43;98292.09;;;23.53
60615;BMP280;46444;45.590;5.284;2022-09-13T07:06:23;98285.38;;;23.50
60615;BMP280;46444;45.590;5.284;2022-09-13T07:08:50;98302.19;;;23.52
60615;BMP280;46444;45.590;5.284;2022-09-13T07:11:17;98290.78;;;23.59
60615;BMP280;46444;45.590;5.284;2022-09-13T07:13:49;98293.63;;;23.62
60615;BMP280;46444;45.590;5.284;2022-09-13T07:16:16;98287.91;;;23.55
60615;BMP280;46444;45.590;5.284;2022-09-13T07:18:41;98285.13;;;23.64
60615;BMP280;46444;45.590;5.284;2022-09-13T07:21:09;98289.69;;;23.72
60615;BMP280;46444;45.590;5.284;2022-09-13T07:23:36;98290.84;;;23.71
60615;BMP280;46444;45.590;5.284;2022-09-13T07:26:03;98287.59;;;23.77
60615;BMP280;46444;45.590;5.284;2022-09-13T07:28:40;98275.34;;;23.83
60615;BMP280;46444;45.590;5.284;2022-09-13T07:33:37;98272.53;;;23.92
60615;BMP280;46444;45.590;5.284;2022-09-13T07:36:03;98270.53;;;24.01
60615;BMP280;46444;45.590;5.284;2022-09-13T07:38:34;98273.06;;;24.06
60615;BMP280;46444;45.590;5.284;2022-09-13T07:41:01;98273.75;;;24.15
60615;BMP280;46444;45.590;5.284;2022-09-13T07:43:27;98276.72;;;24.22
60615;BMP280;46444;45.590;5.284;2022-09-13T07:46:07;98275.66;;;24.35
60615;BMP280;46444;45.590;5.284;2022-09-13T07:48:34;98271.88;;;24.39
60615;BMP280;46444;45.590;5.284;2022-09-13T07:51:04;98267.94;;;24.49
60615;BMP280;46444;45.590;5.284;2022-09-13T07:53:31;98270.78;;;24.52
60615;BMP280;46444;45.590;5.284;2022-09-13T07:56:02;98272.41;;;24.65
60615;BMP280;46444;45.590;5.284;2022-09-13T07:58:28;98275.63;;;24.79
60615;BMP280;46444;45.590;5.284;2022-09-13T08:01:03;98279.47;;;24.90
60615;BMP280;46444;45.590;5.284;2022-09-13T08:03:28;98277.44;;;24.99
60615;BMP280;46444;45.590;5.284;2022-09-13T08:05:54;98280.41;;;25.06
60615;BMP280;46444;45.590;5.284;2022-09-13T08:08:19;98292.69;;;25.12
60615;BMP280;46444;45.590;5.284;2022-09-13T08:10:45;98293.72;;;25.20
60615;BMP280;46444;45.590;5.284;2022-09-13T08:13:10;98297.50;;;25.27
60615;BMP280;46444;45.590;5.284;2022-09-13T08:15:36;98282.69;;;25.28
60615;BMP280;46444;45.590;5.284;2022-09-13T08:18:01;98281.97;;;25.31
60615;BMP280;46444;45.590;5.284;2022-09-13T08:20:26;98287.56;;;25.35
60615;BMP280;46444;45.590;5.284;2022-09-13T08:22:52;98287.69;;;25.38
60615;BMP280;46444;45.590;5.284;2022-09-13T08:25:17;98282.44;;;25.45
60615;BMP280;46444;45.590;5.284;2022-09-13T08:27:42;98269.41;;;25.54
60615;BMP280;46444;45.590;5.284;2022-09-13T08:30:08;98280.81;;;25.56
60615;BMP280;46444;45.590;5.284;2022-09-13T08:32:34;98278.09;;;25.56
60615;BMP280;46444;45.590;5.284;2022-09-13T08:35:00;98288.53;;;25.66
60615;BMP280;46444;45.590;5.284;2022-09-13T08:37:25;98300.81;;;25.72
60615;BMP280;46444;45.590;5.284;2022-09-13T08:39:50;98297.41;;;25.75
60615;BMP280;46444;45.590;5.284;2022-09-13T08:44:52;98295.53;;;25.91
60615;BMP280;46444;45.590;5.284;2022-09-13T08:47:43;98298.03;;;25.96
60615;BMP280;46444;45.590;5.284;2022-09-13T08:50:18;98305.91;;;25.98
60615;BMP280;46444;45.590;5.284;2022-09-13T08:52:57;98295.06;;;26.01
60615;BMP280;46444;45.590;5.284;2022-09-13T08:55:27;98298.00;;;26.08
60615;BMP280;46444;45.590;5.284;2022-09-13T08:58:16;98308.44;;;26.18
60615;BMP280;46444;45.590;5.284;2022-09-13T09:00:49;98288.38;;;26.14
60615;BMP280;46444;45.590;5.284;2022-09-13T09:03:29;98301.81;;;26.19
60615;BMP280;46444;45.590;5.284;2022-09-13T09:05:59;98302.00;;;26.26
60615;BMP280;46444;45.590;5.284;2022-09-13T09:08:44;98307.44;;;26.38
60615;BMP280;46444;45.590;5.284;2022-09-13T09:11:54;98297.53;;;26.49
60615;BMP280;46444;45.590;5.284;2022-09-13T09:14:32;98302.13;;;26.57
60615;BMP280;46444;45.590;5.284;2022-09-13T09:17:02;98296.63;;;26.57
60615;BMP280;46444;45.590;5.284;2022-09-13T09:19:35;98297.50;;;26.61
60615;BMP280;46444;45.590;5.284;2022-09-13T09:22:04;98295.09;;;26.60
60615;BMP280;46444;45.590;5.284;2022-09-13T09:24:34;98298.66;;;26.60
60615;BMP280;46444;45.590;5.284;2022-09-13T09:27:01;98293.50;;;26.59
60615;BMP280;46444;45.590;5.284;2022-09-13T09:29:35;98294.50;;;26.66
60615;BMP280;46444;45.590;5.284;2022-09-13T09:32:34;98277.38;;;26.69
60615;BMP280;46444;45.590;5.284;2022-09-13T09:35:37;98279.66;;;26.67
60615;BMP280;46444;45.590;5.284;2022-09-13T09:40:46;98274.34;;;26.74
60615;BMP280;46444;45.590;5.284;2022-09-13T09:43:41;98288.41;;;26.57
60615;BMP280;46444;45.590;5.284;2022-09-13T09:46:10;98282.13;;;26.72
60615;BMP280;46444;45.590;5.284;2022-09-13T09:48:42;98276.22;;;26.70
60615;BMP280;46444;45.590;5.284;2022-09-13T09:51:10;98284.44;;;26.70
60615;BMP280;46444;45.590;5.284;2022-09-13T09:53:41;98267.25;;;26.73
60615;BMP280;46444;45.590;5.284;2022-09-13T09:58:44;98280.72;;;26.78
60615;BMP280;46444;45.590;5.284;2022-09-13T10:01:30;98280.28;;;26.76
60615;BMP280;46444;45.590;5.284;2022-09-13T10:06:38;98279.19;;;26.96
60615;BMP280;46444;45.590;5.284;2022-09-13T10:09:06;98279.63;;;26.98
60615;BMP280;46444;45.590;5.284;2022-09-13T10:11:47;98280.44;;;26.99
60615;BMP280;46444;45.590;5.284;2022-09-13T10:14:38;98275.56;;;27.08
60615;BMP280;46444;45.590;5.284;2022-09-13T10:17:17;98271.75;;;27.12
60615;BMP280;46444;45.590;5.284;2022-09-13T10:22:36;98273.50;;;27.36
60615;BMP280;46444;45.590;5.284;2022-09-13T10:25:21;98261.16;;;27.45
60615;BMP280;46444;45.590;5.284;2022-09-13T10:27:50;98269.19;;;27.54
60615;BMP280;46444;45.590;5.284;2022-09-13T10:30:31;98272.00;;;27.57
60615;BMP280;46444;45.590;5.284;2022-09-13T10:32:58;98262.19;;;27.56
60615;BMP280;46444;45.590;5.284;2022-09-13T10:35:24;98279.97;;;27.62
60615;BMP280;46444;45.590;5.284;2022-09-13T10:37:50;98277.06;;;27.55
60615;BMP280;46444;45.590;5.284;2022-09-13T10:40:21;98284.41;;;27.51
60615;BMP280;46444;45.590;5.284;2022-09-13T10:42:55;98268.00;;;27.70
60615;BMP280;46444;45.590;5.284;2022-09-13T10:45:24;98263.53;;;27.81
60615;BMP280;46444;45.590;5.284;2022-09-13T10:47:52;98269.09;;;27.85
60615;BMP280;46444;45.590;5.284;2022-09-13T10:57:48;98256.88;;;28.01
60615;BMP280;46444;45.590;5.284;2022-09-13T11:00:20;98253.63;;;27.96
60615;BMP280;46444;45.590;5.284;2022-09-13T11:05:23;98250.94;;;27.99
60615;BMP280;46444;45.590;5.284;2022-09-13T11:10:46;98245.44;;;28.18
60615;BMP280;46444;45.590;5.284;2022-09-13T11:15:52;98238.78;;;28.19
60615;BMP280;46444;45.590;5.284;2022-09-13T11:21:42;98259.72;;;28.27
60615;BMP280;46444;45.590;5.284;2022-09-13T11:38:34;98228.19;;;28.40
60615;BMP280;46444;45.590;5.284;2022-09-13T11:51:27;98229.50;;;28.27
60615;BMP280;46444;45.590;5.284;2022-09-13T11:54:36;98209.41;;;28.42
60615;BMP280;46444;45.590;5.284;2022-09-13T11:57:11;98239.00;;;28.52
60615;BMP280;46444;45.590;5.284;2022-09-13T11:59:46;98238.16;;;28.48
60615;BMP280;46444;45.590;5.284;2022-09-13T12:04:59;98192.03;;;28.61
60615;BMP280;46444;45.590;5.284;2022-09-13T12:07:37;98201.84;;;28.62
60615;BMP280;46444;45.590;5.284;2022-09-13T12:12:58;98204.53;;;28.58
60615;BMP280;46444;45.590;5.284;2022-09-13T12:15:35;98178.84;;;28.70
60615;BMP280;46444;45.590;5.284;2022-09-13T12:18:10;98223.59;;;28.70
60615;BMP280;46444;45.590;5.284;2022-09-13T12:20:49;98191.06;;;28.98
60615;BMP280;46444;45.590;5.284;2022-09-13T12:23:26;98175.66;;;29.20
60615;BMP280;46444;45.590;5.284;2022-09-13T12:26:01;98190.94;;;29.43
60615;BMP280;46444;45.590;5.284;2022-09-13T12:28:42;98186.50;;;29.65
60615;BMP280;46444;45.590;5.284;2022-09-13T12:31:18;98168.25;;;29.86
60615;BMP280;46444;45.590;5.284;2022-09-13T12:33:46;98160.25;;;30.11
60615;BMP280;46444;45.590;5.284;2022-09-13T12:36:34;98172.22;;;29.89
60615;BMP280;46444;45.590;5.284;2022-09-13T12:41:59;98171.22;;;29.71
60615;BMP280;46444;45.590;5.284;2022-09-13T12:47:20;98166.38;;;29.31
60615;BMP280;46444;45.590;5.284;2022-09-13T12:50:31;98170.88;;;29.13
60615;BMP280;46444;45.590;5.284;2022-09-13T12:53:23;98162.97;;;29.41
60615;BMP280;46444;45.590;5.284;2022-09-13T12:55:59;98166.22;;;29.50
60615;BMP280;46444;45.590;5.284;2022-09-13T13:01:22;98194.13;;;29.19
60615;BMP280;46444;45.590;5.284;2022-09-13T13:03:55;98173.84;;;29.01
60615;BMP280;46444;45.590;5.284;2022-09-13T13:08:56;98152.75;;;29.12
60615;BMP280;46444;45.590;5.284;2022-09-13T13:11:24;98156.13;;;29.28
60615;BMP280;46444;45.590;5.284;2022-09-13T13:13:56;98162.06;;;29.04
60615;BMP280;46444;45.590;5.284;2022-09-13T13:16:30;98148.03;;;29.13
60615;BMP280;46444;45.590;5.284;2022-09-13T13:19:00;98158.47;;;29.00
60615;BMP280;46444;45.590;5.284;2022-09-13T13:21:37;98166.50;;;28.86
60615;BMP280;46444;45.590;5.284;2022-09-13T13:26:49;98155.63;;;28.67
60615;BMP280;46444;45.590;5.284;2022-09-13T13:29:18;98161.31;;;28.81
60615;BMP280;46444;45.590;5.284;2022-09-13T13:32:03;98145.94;;;28.77
60615;BMP280;46444;45.590;5.284;2022-09-13T13:34:38;98140.34;;;28.70
60615;BMP280;46444;45.590;5.284;2022-09-13T13:39:36;98170.78;;;28.84
60615;BMP280;46444;45.590;5.284;2022-09-13T13:49:43;98136.47;;;29.00
60615;BMP280;46444;45.590;5.284;2022-09-13T13:57:37;98151.59;;;29.13
60615;BMP280;46444;45.590;5.284;2022-09-13T14:00:19;98136.28;;;29.78
60615;BMP280;46444;45.590;5.284;2022-09-13T14:16:22;98123.16;;;29.65
60615;BMP280;46444;45.590;5.284;2022-09-13T14:21:36;98133.78;;;29.66
60615;BMP280;46444;45.590;5.284;2022-09-13T14:26:49;98106.59;;;30.01
60615;BMP280;46444;45.590;5.284;2022-09-13T14:29:18;98101.25;;;30.15
60615;BMP280;46444;45.590;5.284;2022-09-13T14:31:49;98109.06;;;30.10
60615;BMP280;46444;45.590;5.284;2022-09-13T14:34:30;98109.34;;;30.01
60615;BMP280;46444;45.590;5.284;2022-09-13T14:36:58;98108.59;;;30.04
60615;BMP280;46444;45.590;5.284;2022-09-13T14:39:25;98113.47;;;30.14
60615;BMP280;46444;45.590;5.284;2022-09-13T14:42:02;98107.59;;;29.79
60615;BMP280;46444;45.590;5.284;2022-09-13T14:44:31;98108.66;;;29.71
60615;BMP280;46444;45.590;5.284;2022-09-13T14:47:12;98111.56;;;29.52
60615;BMP280;46444;45.590;5.284;2022-09-13T14:49:43;98117.63;;;29.61
60615;BMP280;46444;45.590;5.284;2022-09-13T14:52:31;98116.97;;;29.12
60615;BMP280;46444;45.590;5.284;2022-09-13T14:55:02;98101.72;;;29.18
60615;BMP280;46444;45.590;5.284;2022-09-13T14:57:35;98110.81;;;29.22
60615;BMP280;46444;45.590;5.284;2022-09-13T15:00:06;98113.81;;;29.10
60615;BMP280;46444;45.590;5.284;2022-09-13T15:02:42;98090.31;;;29.16
60615;BMP280;46444;45.590;5.284;2022-09-13T15:05:12;98098.34;;;28.99
60615;BMP280;46444;45.590;5.284;2022-09-13T15:07:39;98096.31;;;28.96
60615;BMP280;46444;45.590;5.284;2022-09-13T15:10:30;98094.00;;;28.98
60615;BMP280;46444;45.590;5.284;2022-09-13T15:13:08;98090.75;;;28.92
60615;BMP280;46444;45.590;5.284;2022-09-13T15:20:48;98104.50;;;28.92
60615;BMP280;46444;45.590;5.284;2022-09-13T15:23:31;98088.13;;;28.99
60615;BMP280;46444;45.590;5.284;2022-09-13T15:31:06;98065.16;;;28.88
60615;BMP280;46444;45.590;5.284;2022-09-13T15:33:33;98060.81;;;28.87
60615;BMP280;46444;45.590;5.284;2022-09-13T15:36:31;98072.91;;;28.79
60615;BMP280;46444;45.590;5.284;2022-09-13T15:39:17;98071.78;;;28.54
60615;BMP280;46444;45.590;5.284;2022-09-13T15:41:59;98096.47;;;28.51
60615;BMP280;46444;45.590;5.284;2022-09-13T15:44:26;98079.38;;;28.38
60615;BMP280;46444;45.590;5.284;2022-09-13T15:46:59;98077.03;;;28.40
60615;BMP280;46444;45.590;5.284;2022-09-13T15:49:27;98063.06;;;28.52
60615;BMP280;46444;45.590;5.284;2022-09-13T15:52:02;98056.38;;;28.50
60615;BMP280;46444;45.590;5.284;2022-09-13T15:56:58;98059.78;;;28.40
60615;BMP280;46444;45.590;5.284;2022-09-13T15:59:24;98061.81;;;28.46
60615;BMP280;46444;45.590;5.284;2022-09-13T16:01:50;98055.97;;;28.25
60615;BMP280;46444;45.590;5.284;2022-09-13T16:04:16;98058.84;;;28.32
60615;BMP280;46444;45.590;5.284;2022-09-13T16:06:42;98050.91;;;28.27
60615;BMP280;46444;45.590;5.284;2022-09-13T16:09:18;98049.41;;;28.33
60615;BMP280;46444;45.590;5.284;2022-09-13T16:11:45;98044.69;;;28.30
60615;BMP280;46444;45.590;5.284;2022-09-13T16:14:10;98034.25;;;28.17
60615;BMP280;46444;45.590;5.284;2022-09-13T16:16:36;98027.44;;;28.33
60615;BMP280;46444;45.590;5.284;2022-09-13T16:19:02;98042.75;;;28.08
60615;BMP280;46444;45.590;5.284;2022-09-13T16:21:27;98034.94;;;28.10
60615;BMP280;46444;45.590;5.284;2022-09-13T16:23:54;98049.81;;;28.09
60615;BMP280;46444;45.590;5.284;2022-09-13T16:26:19;98040.63;;;27.98
60615;BMP280;46444;45.590;5.284;2022-09-13T16:28:44;98034.81;;;28.03
60615;BMP280;46444;45.590;5.284;2022-09-13T16:31:10;98040.97;;;27.97
60615;BMP280;46444;45.590;5.284;2022-09-13T16:33:35;98042.53;;;27.94
60615;BMP280;46444;45.590;5.284;2022-09-13T16:36:01;98028.47;;;27.99
60615;BMP280;46444;45.590;5.284;2022-09-13T16:38:26;98034.22;;;28.13
60615;BMP280;46444;45.590;5.284;2022-09-13T16:40:51;98044.22;;;28.02
60615;BMP280;46444;45.590;5.284;2022-09-13T16:43:17;98051.09;;;28.15
60615;BMP280;46444;45.590;5.284;2022-09-13T16:45:43;98056.78;;;28.03
60615;BMP280;46444;45.590;5.284;2022-09-13T16:48:09;98062.47;;;27.91
60615;BMP280;46444;45.590;5.284;2022-09-13T16:50:38;98055.56;;;28.01
60615;BMP280;46444;45.590;5.284;2022-09-13T16:53:04;98059.06;;;27.98
60615;BMP280;46444;45.590;5.284;2022-09-13T16:55:30;98052.06;;;28.00
60615;BMP280;46444;45.590;5.284;2022-09-13T16:57:55;98054.81;;;28.00
60615;BMP280;46444;45.590;5.284;2022-09-13T17:00:21;98038.38;;;27.81
60615;BMP280;46444;45.590;5.284;2022-09-13T17:02:48;98050.09;;;27.78
60615;BMP280;46444;45.590;5.284;2022-09-13T17:05:14;98055.75;;;27.66
60615;BMP280;46444;45.590;5.284;2022-09-13T17:07:39;98059.19;;;27.82
60615;BMP280;46444;45.590;5.284;2022-09-13T17:10:06;98062.72;;;27.83
60615;BMP280;46444;45.590;5.284;2022-09-13T17:12:31;98065.53;;;27.86
60615;BMP280;46444;45.590;5.284;2022-09-13T17:14:57;98062.81;;;27.67
60615;BMP280;46444;45.590;5.284;2022-09-13T17:17:23;98065.44;;;27.60
60615;BMP280;46444;45.590;5.284;2022-09-13T17:19:48;98056.47;;;27.63
60615;BMP280;46444;45.590;5.284;2022-09-13T17:22:14;98058.06;;;27.64
60615;BMP280;46444;45.590;5.284;2022-09-13T17:24:40;98049.91;;;27.68
60615;BMP280;46444;45.590;5.284;2022-09-13T17:27:07;98053.00;;;27.66